sensor_id;sensor_type;location;lat;lon;timestamp;temperature;humidity
23609;DHT22;11982;50.810;4.442;2023-12-07T00:01:42;3.20;99.90
23609;DHT22;11982;50.810;4.442;2023-12-07T00:04:08;3.30;99.90
23609;DHT22;11982;50.810;4.442;2023-12-07T00:06:34;3.40;99.90
23609;DHT22;11982;50.810;4.442;2023-12-07T00:08:59;3.30;99.90
23609;DHT22;11982;50.810;4.442;2023-12-07T00:11:26;3.20;99.90
23609;DHT22;11982;50.810;4.442;2023-12-07T00:13:52;3.10;99.90
23609;DHT22;11982;50.810;4.442;2023-12-07T00:19:40;3.20;99.90
23609;DHT22;11982;50.810;4.442;2023-12-07T00:22:05;3.10;99.90
23609;DHT22;11982;50.810;4.442;2023-12-07T00:24:31;3.20;99.90
23609;DHT22;11982;50.810;4.442;2023-12-07T00:26:57;3.30;99.90
23609;DHT22;11982;50.810;4.442;2023-12-07T00:29:22;3.40;99.90
23609;DHT22;11982;50.810;4.442;2023-12-07T00:35:10;3.50;99.90
23609;DHT22;11982;50.810;4.442;2023-12-07T00:37:36;3.50;99.90
23609;DHT22;11982;50.810;4.442;2023-12-07T00:40:02;3.50;99.90
23609;DHT22;11982;50.810;4.442;2023-12-07T00:42:29;3.60;99.90
23609;DHT22;11982;50.810;4.442;2023-12-07T00:44:55;3.60;99.90
23609;DHT22;11982;50.810;4.442;2023-12-07T00:47:20;3.60;99.90
23609;DHT22;11982;50.810;4.442;2023-12-07T00:49:46;3.70;99.90
23609;DHT22;11982;50.810;4.442;2023-12-07T00:52:12;3.60;99.90
23609;DHT22;11982;50.810;4.442;2023-12-07T00:54:38;3.70;99.90
23609;DHT22;11982;50.810;4.442;2023-12-07T00:57:05;3.60;99.90
23609;DHT22;11982;50.810;4.442;2023-12-07T00:59:32;3.50;99.90
23609;DHT22;11982;50.810;4.442;2023-12-07T01:05:21;3.60;99.90
23609;DHT22;11982;50.810;4.442;2023-12-07T01:07:46;3.70;99.90
23609;DHT22;11982;50.810;4.442;2023-12-07T01:10:12;3.50;99.90
23609;DHT22;11982;50.810;4.442;2023-12-07T01:12:38;3.50;99.90
23609;DHT22;11982;50.810;4.442;2023-12-07T01:15:04;3.40;99.90
23609;DHT22;11982;50.810;4.442;2023-12-07T01:20:51;3.60;99.90
23609;DHT22;11982;50.810;4.442;2023-12-07T01:23:17;3.50;99.90
23609;DHT22;11982;50.810;4.442;2023-12-07T01:25:43;3.50;99.90
23609;DHT22;11982;50.810;4.442;2023-12-07T01:28:08;3.50;99.90
23609;DHT22;11982;50.810;4.442;2023-12-07T01:30:34;3.40;99.90
23609;DHT22;11982;50.810;4.442;2023-12-07T01:33:01;3.30;99.90
23609;DHT22;11982;50.810;4.442;2023-12-07T01:35:27;3.40;99.90
23609;DHT22;11982;50.810;4.442;2023-12-07T01:37:54;3.40;99.90
23609;DHT22;11982;50.810;4.442;2023-12-07T01:40:20;3.40;99.90
23609;DHT22;11982;50.810;4.442;2023-12-07T01:42:52;3.60;99.90
23609;DHT22;11982;50.810;4.442;2023-12-07T01:45:19;3.60;99.90
23609;DHT22;11982;50.810;4.442;2023-12-07T01:51:07;3.70;99.90
23609;DHT22;11982;50.810;4.442;2023-12-07T01:53:33;3.40;99.90
23609;DHT22;11982;50.810;4.442;2023-12-07T01:55:59;3.30;99.90
23609;DHT22;11982;50.810;4.442;2023-12-07T01:58:25;3.20;99.90
23609;DHT22;11982;50.810;4.442;2023-12-07T02:00:51;3.20;99.90
23609;DHT22;11982;50.810;4.442;2023-12-07T02:03:18;3.20;99.90
23609;DHT22;11982;50.810;4.442;2023-12-07T02:05:47;3.20;99.90
23609;DHT22;11982;50.810;4.442;2023-12-07T02:08:12;3.30;99.90
23609;DHT22;11982;50.810;4.442;2023-12-07T02:10:38;3.50;99.90
23609;DHT22;11982;50.810;4.442;2023-12-07T02:13:05;3.40;99.90
23609;DHT22;11982;50.810;4.442;2023-12-07T02:15:31;3.30;99.90
23609;DHT22;11982;50.810;4.442;2023-12-07T02:21:25;3.50;99.90
23609;DHT22;11982;50.810;4.442;2023-12-07T02:23:52;3.40;99.90
23609;DHT22;11982;50.810;4.442;2023-12-07T02:26:20;3.50;99.90
23609;DHT22;11982;50.810;4.442;2023-12-07T02:28:47;3.60;99.90
23609;DHT22;11982;50.810;4.442;2023-12-07T02:31:13;3.60;99.90
23609;DHT22;11982;50.810;4.442;2023-12-07T02:33:39;3.50;99.90
23609;DHT22;11982;50.810;4.442;2023-12-07T02:36:05;3.50;99.90
23609;DHT22;11982;50.810;4.442;2023-12-07T02:38:31;3.50;99.90
23609;DHT22;11982;50.810;4.442;2023-12-07T02:40:59;3.50;99.90
23609;DHT22;11982;50.810;4.442;2023-12-07T02:43:26;3.40;99.90
23609;DHT22;11982;50.810;4.442;2023-12-07T02:45:52;3.60;99.90
23609;DHT22;11982;50.810;4.442;2023-12-07T02:51:40;3.80;99.90
23609;DHT22;11982;50.810;4.442;2023-12-07T02:54:06;3.70;99.90
23609;DHT22;11982;50.810;4.442;2023-12-07T02:56:32;3.70;99.90
23609;DHT22;11982;50.810;4.442;2023-12-07T02:58:57;3.80;99.90
23609;DHT22;11982;50.810;4.442;2023-12-07T03:01:23;4.00;99.90
23609;DHT22;11982;50.810;4.442;2023-12-07T03:07:10;4.10;99.90
23609;DHT22;11982;50.810;4.442;2023-12-07T03:09:36;4.10;99.90
23609;DHT22;11982;50.810;4.442;2023-12-07T03:12:02;4.00;99.90
23609;DHT22;11982;50.810;4.442;2023-12-07T03:14:27;3.90;99.90
23609;DHT22;11982;50.810;4.442;2023-12-07T03:16:53;3.90;99.90
23609;DHT22;11982;50.810;4.442;2023-12-07T03:19:19;3.90;99.90
23609;DHT22;11982;50.810;4.442;2023-12-07T03:21:44;3.90;99.90
23609;DHT22;11982;50.810;4.442;2023-12-07T03:24:10;3.90;99.90
23609;DHT22;11982;50.810;4.442;2023-12-07T03:26:37;3.80;99.90
23609;DHT22;11982;50.810;4.442;2023-12-07T03:29:03;3.80;99.90
23609;DHT22;11982;50.810;4.442;2023-12-07T03:31:28;3.70;99.90
23609;DHT22;11982;50.810;4.442;2023-12-07T03:37:16;3.90;99.90
23609;DHT22;11982;50.810;4.442;2023-12-07T03:39:41;3.90;99.90
23609;DHT22;11982;50.810;4.442;2023-12-07T03:42:07;3.70;99.90
23609;DHT22;11982;50.810;4.442;2023-12-07T03:44:33;3.70;99.90
23609;DHT22;11982;50.810;4.442;2023-12-07T03:46:58;3.80;99.90
23609;DHT22;11982;50.810;4.442;2023-12-07T03:52:46;4.00;99.90
23609;DHT22;11982;50.810;4.442;2023-12-07T03:55:12;4.10;99.90
23609;DHT22;11982;50.810;4.442;2023-12-07T03:57:37;4.00;99.90
23609;DHT22;11982;50.810;4.442;2023-12-07T04:00:03;4.00;99.90
23609;DHT22;11982;50.810;4.442;2023-12-07T04:02:33;4.10;99.90
23609;DHT22;11982;50.810;4.442;2023-12-07T04:05:00;4.20;99.90
23609;DHT22;11982;50.810;4.442;2023-12-07T04:07:28;4.10;99.90
23609;DHT22;11982;50.810;4.442;2023-12-07T04:09:55;4.20;99.90
23609;DHT22;11982;50.810;4.442;2023-12-07T04:12:23;4.20;99.90
23609;DHT22;11982;50.810;4.442;2023-12-07T04:14:50;4.30;99.90
23609;DHT22;11982;50.810;4.442;2023-12-07T04:17:16;4.10;99.90
23609;DHT22;11982;50.810;4.442;2023-12-07T04:23:18;4.20;99.90
23609;DHT22;11982;50.810;4.442;2023-12-07T04:25:44;4.00;99.90
23609;DHT22;11982;50.810;4.442;2023-12-07T04:28:09;3.80;99.90
23609;DHT22;11982;50.810;4.442;2023-12-07T04:30:35;3.80;99.90
23609;DHT22;11982;50.810;4.442;2023-12-07T04:33:00;3.70;99.90
23609;DHT22;11982;50.810;4.442;2023-12-07T04:35:27;3.80;99.90
23609;DHT22;11982;50.810;4.442;2023-12-07T04:37:54;3.80;99.90
23609;DHT22;11982;50.810;4.442;2023-12-07T04:40:19;3.70;99.90
23609;DHT22;11982;50.810;4.442;2023-12-07T04:42:45;3.70;99.90
23609;DHT22;11982;50.810;4.442;2023-12-07T04:45:11;3.60;99.90
23609;DHT22;11982;50.810;4.442;2023-12-07T04:47:37;3.60;99.90
23609;DHT22;11982;50.810;4.442;2023-12-07T04:53:25;3.80;99.90
23609;DHT22;11982;50.810;4.442;2023-12-07T04:55:51;3.70;99.90
23609;DHT22;11982;50.810;4.442;2023-12-07T04:58:16;3.60;99.90
23609;DHT22;11982;50.810;4.442;2023-12-07T05:00:42;3.50;99.90
23609;DHT22;11982;50.810;4.442;2023-12-07T05:03:08;3.50;99.90
23609;DHT22;11982;50.810;4.442;2023-12-07T05:05:33;3.30;99.90
23609;DHT22;11982;50.810;4.442;2023-12-07T05:07:59;3.30;99.90
23609;DHT22;11982;50.810;4.442;2023-12-07T05:10:25;3.20;99.90
23609;DHT22;11982;50.810;4.442;2023-12-07T05:12:50;3.30;99.90
23609;DHT22;11982;50.810;4.442;2023-12-07T05:15:16;3.20;99.90
23609;DHT22;11982;50.810;4.442;2023-12-07T05:17:42;3.20;99.90
23609;DHT22;11982;50.810;4.442;2023-12-07T05:23:30;3.20;99.90
23609;DHT22;11982;50.810;4.442;2023-12-07T05:25:55;3.10;99.90
23609;DHT22;11982;50.810;4.442;2023-12-07T05:28:21;3.20;99.90
23609;DHT22;11982;50.810;4.442;2023-12-07T05:30:47;3.30;99.90
23609;DHT22;11982;50.810;4.442;2023-12-07T05:33:12;3.20;99.90
23609;DHT22;11982;50.810;4.442;2023-12-07T05:39:01;3.40;99.90
23609;DHT22;11982;50.810;4.442;2023-12-07T05:41:27;3.40;99.90
23609;DHT22;11982;50.810;4.442;2023-12-07T05:43:52;3.30;99.90
23609;DHT22;11982;50.810;4.442;2023-12-07T05:46:21;3.30;99.90
23609;DHT22;11982;50.810;4.442;2023-12-07T05:48:47;3.30;99.90
23609;DHT22;11982;50.810;4.442;2023-12-07T05:51:18;3.40;99.90
23609;DHT22;11982;50.810;4.442;2023-12-07T05:53:45;3.30;99.90
23609;DHT22;11982;50.810;4.442;2023-12-07T05:56:11;3.30;99.90
23609;DHT22;11982;50.810;4.442;2023-12-07T05:58:37;3.30;99.90
23609;DHT22;11982;50.810;4.442;2023-12-07T06:01:03;3.30;99.90
23609;DHT22;11982;50.810;4.442;2023-12-07T06:03:29;3.30;99.90
23609;DHT22;11982;50.810;4.442;2023-12-07T06:09:16;3.20;99.90
23609;DHT22;11982;50.810;4.442;2023-12-07T06:11:42;3.20;99.90
23609;DHT22;11982;50.810;4.442;2023-12-07T06:14:08;3.10;99.90
23609;DHT22;11982;50.810;4.442;2023-12-07T06:16:34;3.10;99.90
23609;DHT22;11982;50.810;4.442;2023-12-07T06:19:00;3.00;99.90
23609;DHT22;11982;50.810;4.442;2023-12-07T06:24:48;2.90;99.90
23609;DHT22;11982;50.810;4.442;2023-12-07T06:27:15;2.90;99.90
23609;DHT22;11982;50.810;4.442;2023-12-07T06:29:41;2.90;99.90
23609;DHT22;11982;50.810;4.442;2023-12-07T06:32:06;2.90;99.90
23609;DHT22;11982;50.810;4.442;2023-12-07T06:34:32;3.00;99.90
23609;DHT22;11982;50.810;4.442;2023-12-07T06:36:58;3.00;99.90
23609;DHT22;11982;50.810;4.442;2023-12-07T06:39:23;3.10;99.90
23609;DHT22;11982;50.810;4.442;2023-12-07T06:41:49;3.10;99.90
23609;DHT22;11982;50.810;4.442;2023-12-07T06:44:15;3.00;99.90
23609;DHT22;11982;50.810;4.442;2023-12-07T06:46:40;3.00;99.90
23609;DHT22;11982;50.810;4.442;2023-12-07T06:49:06;3.00;99.90
23609;DHT22;11982;50.810;4.442;2023-12-07T06:54:54;3.00;99.90
23609;DHT22;11982;50.810;4.442;2023-12-07T06:57:21;3.00;99.90
23609;DHT22;11982;50.810;4.442;2023-12-07T06:59:46;3.00;99.90
23609;DHT22;11982;50.810;4.442;2023-12-07T07:02:13;3.10;99.90
23609;DHT22;11982;50.810;4.442;2023-12-07T07:04:38;3.00;99.90
23609;DHT22;11982;50.810;4.442;2023-12-07T07:07:04;3.00;99.90
23609;DHT22;11982;50.810;4.442;2023-12-07T07:09:30;2.90;99.90
23609;DHT22;11982;50.810;4.442;2023-12-07T07:11:56;2.90;99.90
23609;DHT22;11982;50.810;4.442;2023-12-07T07:14:21;2.90;99.90
23609;DHT22;11982;50.810;4.442;2023-12-07T07:16:47;2.90;99.90
23609;DHT22;11982;50.810;4.442;2023-12-07T07:19:13;2.90;99.90
23609;DHT22;11982;50.810;4.442;2023-12-07T07:25:01;2.80;99.90
23609;DHT22;11982;50.810;4.442;2023-12-07T07:27:28;2.80;99.90
23609;DHT22;11982;50.810;4.442;2023-12-07T07:29:53;2.70;99.90
23609;DHT22;11982;50.810;4.442;2023-12-07T07:32:19;2.70;99.90
23609;DHT22;11982;50.810;4.442;2023-12-07T07:34:45;2.60;99.90
23609;DHT22;11982;50.810;4.442;2023-12-07T07:40:32;2.50;99.90
23609;DHT22;11982;50.810;4.442;2023-12-07T07:42:58;2.50;99.90
23609;DHT22;11982;50.810;4.442;2023-12-07T07:45:24;2.50;99.90
23609;DHT22;11982;50.810;4.442;2023-12-07T07:47:50;2.60;99.90
23609;DHT22;11982;50.810;4.442;2023-12-07T07:50:15;2.60;99.90
23609;DHT22;11982;50.810;4.442;2023-12-07T07:56:04;2.70;99.90
23609;DHT22;11982;50.810;4.442;2023-12-07T07:58:30;2.70;99.90
23609;DHT22;11982;50.810;4.442;2023-12-07T08:00:55;2.70;99.90
23609;DHT22;11982;50.810;4.442;2023-12-07T08:03:21;2.70;99.90
23609;DHT22;11982;50.810;4.442;2023-12-07T08:05:47;2.70;99.90
23609;DHT22;11982;50.810;4.442;2023-12-07T08:08:13;2.70;99.90
23609;DHT22;11982;50.810;4.442;2023-12-07T08:10:38;2.80;99.90
23609;DHT22;11982;50.810;4.442;2023-12-07T08:13:04;2.90;99.90
23609;DHT22;11982;50.810;4.442;2023-12-07T08:15:32;3.00;99.90
23609;DHT22;11982;50.810;4.442;2023-12-07T08:17:57;3.10;99.90
23609;DHT22;11982;50.810;4.442;2023-12-07T08:20:23;3.10;99.90
23609;DHT22;11982;50.810;4.442;2023-12-07T08:26:12;3.10;99.90
23609;DHT22;11982;50.810;4.442;2023-12-07T08:28:42;3.10;99.90
23609;DHT22;11982;50.810;4.442;2023-12-07T08:31:08;3.30;99.90
23609;DHT22;11982;50.810;4.442;2023-12-07T08:33:34;3.50;99.90
23609;DHT22;11982;50.810;4.442;2023-12-07T08:36:01;3.60;99.90
23609;DHT22;11982;50.810;4.442;2023-12-07T08:38:26;3.70;99.90
23609;DHT22;11982;50.810;4.442;2023-12-07T08:40:52;3.70;99.90
23609;DHT22;11982;50.810;4.442;2023-12-07T08:43:21;3.70;99.90
23609;DHT22;11982;50.810;4.442;2023-12-07T08:45:51;3.80;99.90
23609;DHT22;11982;50.810;4.442;2023-12-07T08:48:17;3.90;99.90
23609;DHT22;11982;50.810;4.442;2023-12-07T08:50:43;3.90;99.90
23609;DHT22;11982;50.810;4.442;2023-12-07T08:56:30;4.00;99.90
23609;DHT22;11982;50.810;4.442;2023-12-07T08:58:56;4.00;99.90
23609;DHT22;11982;50.810;4.442;2023-12-07T09:01:22;4.10;99.90
23609;DHT22;11982;50.810;4.442;2023-12-07T09:03:48;4.10;99.90
23609;DHT22;11982;50.810;4.442;2023-12-07T09:06:14;4.20;99.90
23609;DHT22;11982;50.810;4.442;2023-12-07T09:08:39;4.20;99.90
23609;DHT22;11982;50.810;4.442;2023-12-07T09:11:05;4.20;99.90
23609;DHT22;11982;50.810;4.442;2023-12-07T09:13:31;4.10;99.90
23609;DHT22;11982;50.810;4.442;2023-12-07T09:15:56;4.20;99.90
23609;DHT22;11982;50.810;4.442;2023-12-07T09:18:22;4.30;99.90
23609;DHT22;11982;50.810;4.442;2023-12-07T09:20:48;4.30;99.90
23609;DHT22;11982;50.810;4.442;2023-12-07T09:26:35;4.40;99.90
23609;DHT22;11982;50.810;4.442;2023-12-07T09:29:02;4.30;99.90
23609;DHT22;11982;50.810;4.442;2023-12-07T09:31:28;4.20;99.90
23609;DHT22;11982;50.810;4.442;2023-12-07T09:33:54;4.20;99.90
23609;DHT22;11982;50.810;4.442;2023-12-07T09:36:20;4.20;99.90
23609;DHT22;11982;50.810;4.442;2023-12-07T09:42:11;4.30;99.90
23609;DHT22;11982;50.810;4.442;2023-12-07T09:44:37;4.40;99.90
23609;DHT22;11982;50.810;4.442;2023-12-07T09:47:03;4.40;99.90
23609;DHT22;11982;50.810;4.442;2023-12-07T09:49:30;4.30;99.90
23609;DHT22;11982;50.810;4.442;2023-12-07T09:51:56;4.40;99.90
23609;DHT22;11982;50.810;4.442;2023-12-07T09:54:23;4.40;99.90
23609;DHT22;11982;50.810;4.442;2023-12-07T09:56:50;4.50;99.90
23609;DHT22;11982;50.810;4.442;2023-12-07T09:59:18;4.50;99.90
23609;DHT22;11982;50.810;4.442;2023-12-07T10:01:44;4.60;99.90
23609;DHT22;11982;50.810;4.442;2023-12-07T10:04:21;4.60;99.90
23609;DHT22;11982;50.810;4.442;2023-12-07T10:06:52;4.70;99.90
23609;DHT22;11982;50.810;4.442;2023-12-07T10:12:53;4.80;99.90
23609;DHT22;11982;50.810;4.442;2023-12-07T10:15:21;4.80;99.90
23609;DHT22;11982;50.810;4.442;2023-12-07T10:20:16;4.80;99.90
23609;DHT22;11982;50.810;4.442;2023-12-07T10:22:42;4.90;99.90
23609;DHT22;11982;50.810;4.442;2023-12-07T10:25:09;4.90;99.90
23609;DHT22;11982;50.810;4.442;2023-12-07T10:27:36;5.00;99.90
23609;DHT22;11982;50.810;4.442;2023-12-07T10:30:05;5.10;99.90
23609;DHT22;11982;50.810;4.442;2023-12-07T10:32:36;5.20;99.90
23609;DHT22;11982;50.810;4.442;2023-12-07T10:35:01;5.20;99.90
23609;DHT22;11982;50.810;4.442;2023-12-07T10:37:27;5.10;99.90
23609;DHT22;11982;50.810;4.442;2023-12-07T10:39:54;5.10;99.90
23609;DHT22;11982;50.810;4.442;2023-12-07T10:42:23;5.00;99.90
23609;DHT22;11982;50.810;4.442;2023-12-07T10:44:50;5.00;99.90
23609;DHT22;11982;50.810;4.442;2023-12-07T10:47:19;5.10;99.90
23609;DHT22;11982;50.810;4.442;2023-12-07T10:49:52;5.00;99.90
23609;DHT22;11982;50.810;4.442;2023-12-07T10:52:22;4.90;99.90
23609;DHT22;11982;50.810;4.442;2023-12-07T10:58:11;4.90;99.90
23609;DHT22;11982;50.810;4.442;2023-12-07T11:00:42;5.00;99.90
23609;DHT22;11982;50.810;4.442;2023-12-07T11:03:17;5.10;99.90
23609;DHT22;11982;50.810;4.442;2023-12-07T11:05:45;5.10;99.90
23609;DHT22;11982;50.810;4.442;2023-12-07T11:11:12;5.10;99.90
23609;DHT22;11982;50.810;4.442;2023-12-07T11:13:47;5.20;99.90
23609;DHT22;11982;50.810;4.442;2023-12-07T11:16:14;5.30;99.90
23609;DHT22;11982;50.810;4.442;2023-12-07T11:18:40;5.30;99.90
23609;DHT22;11982;50.810;4.442;2023-12-07T11:21:06;5.40;99.90
23609;DHT22;11982;50.810;4.442;2023-12-07T11:23:32;5.70;99.90
23609;DHT22;11982;50.810;4.442;2023-12-07T11:25:58;5.80;99.90
23609;DHT22;11982;50.810;4.442;2023-12-07T11:28:38;5.80;99.90
23609;DHT22;11982;50.810;4.442;2023-12-07T11:31:08;5.90;99.90
23609;DHT22;11982;50.810;4.442;2023-12-07T11:33:37;6.00;99.90
23609;DHT22;11982;50.810;4.442;2023-12-07T11:36:08;6.10;99.90
23609;DHT22;11982;50.810;4.442;2023-12-07T11:38:36;6.10;99.90
23609;DHT22;11982;50.810;4.442;2023-12-07T11:41:02;6.00;99.90
23609;DHT22;11982;50.810;4.442;2023-12-07T11:46:04;6.20;99.90
23609;DHT22;11982;50.810;4.442;2023-12-07T11:48:30;6.30;99.90
23609;DHT22;11982;50.810;4.442;2023-12-07T11:50:59;6.30;99.90
23609;DHT22;11982;50.810;4.442;2023-12-07T11:53:26;6.40;99.90
23609;DHT22;11982;50.810;4.442;2023-12-07T11:55:52;6.40;99.90
23609;DHT22;11982;50.810;4.442;2023-12-07T11:58:18;6.40;99.90
23609;DHT22;11982;50.810;4.442;2023-12-07T12:00:45;6.40;99.90
23609;DHT22;11982;50.810;4.442;2023-12-07T12:03:13;6.50;99.90
23609;DHT22;11982;50.810;4.442;2023-12-07T12:05:38;6.50;99.90
23609;DHT22;11982;50.810;4.442;2023-12-07T12:08:06;6.60;99.90
23609;DHT22;11982;50.810;4.442;2023-12-07T12:13:54;6.50;99.90
23609;DHT22;11982;50.810;4.442;2023-12-07T12:16:21;6.70;99.90
23609;DHT22;11982;50.810;4.442;2023-12-07T12:18:46;6.80;99.90
23609;DHT22;11982;50.810;4.442;2023-12-07T12:21:12;6.70;99.90
23609;DHT22;11982;50.810;4.442;2023-12-07T12:23:38;6.50;99.90
23609;DHT22;11982;50.810;4.442;2023-12-07T12:26:06;6.50;99.90
23609;DHT22;11982;50.810;4.442;2023-12-07T12:28:33;6.50;99.90
23609;DHT22;11982;50.810;4.442;2023-12-07T12:31:01;6.60;99.90
23609;DHT22;11982;50.810;4.442;2023-12-07T12:33:27;6.60;99.90
23609;DHT22;11982;50.810;4.442;2023-12-07T12:36:06;6.60;99.90
23609;DHT22;11982;50.810;4.442;2023-12-07T12:38:33;6.60;99.90
23609;DHT22;11982;50.810;4.442;2023-12-07T12:40:58;6.60;99.90
23609;DHT22;11982;50.810;4.442;2023-12-07T12:43:24;6.70;99.90
23609;DHT22;11982;50.810;4.442;2023-12-07T12:45:50;6.60;99.90
23609;DHT22;11982;50.810;4.442;2023-12-07T12:48:16;6.50;99.90
23609;DHT22;11982;50.810;4.442;2023-12-07T12:50:42;6.60;99.90
23609;DHT22;11982;50.810;4.442;2023-12-07T12:53:09;6.60;99.90
23609;DHT22;11982;50.810;4.442;2023-12-07T12:58:57;6.80;99.90
23609;DHT22;11982;50.810;4.442;2023-12-07T13:01:23;6.70;99.90
23609;DHT22;11982;50.810;4.442;2023-12-07T13:03:49;6.60;99.90
23609;DHT22;11982;50.810;4.442;2023-12-07T13:06:16;6.50;99.90
23609;DHT22;11982;50.810;4.442;2023-12-07T13:08:46;6.40;99.90
23609;DHT22;11982;50.810;4.442;2023-12-07T13:14:33;6.40;99.90
23609;DHT22;11982;50.810;4.442;2023-12-07T13:17:01;6.60;99.90
23609;DHT22;11982;50.810;4.442;2023-12-07T13:19:27;6.60;99.90
23609;DHT22;11982;50.810;4.442;2023-12-07T13:21:53;6.50;99.90
23609;DHT22;11982;50.810;4.442;2023-12-07T13:24:18;6.50;99.90
23609;DHT22;11982;50.810;4.442;2023-12-07T13:26:44;6.50;99.90
23609;DHT22;11982;50.810;4.442;2023-12-07T13:29:10;6.60;99.90
23609;DHT22;11982;50.810;4.442;2023-12-07T13:31:36;6.60;99.90
23609;DHT22;11982;50.810;4.442;2023-12-07T13:34:01;6.50;99.90
23609;DHT22;11982;50.810;4.442;2023-12-07T13:36:27;6.50;99.90
23609;DHT22;11982;50.810;4.442;2023-12-07T13:38:55;6.50;99.90
23609;DHT22;11982;50.810;4.442;2023-12-07T13:44:43;6.30;99.90
23609;DHT22;11982;50.810;4.442;2023-12-07T13:47:09;6.30;99.90
23609;DHT22;11982;50.810;4.442;2023-12-07T13:49:35;6.30;99.90
23609;DHT22;11982;50.810;4.442;2023-12-07T13:52:04;6.30;99.90
23609;DHT22;11982;50.810;4.442;2023-12-07T13:54:29;6.30;99.90
23609;DHT22;11982;50.810;4.442;2023-12-07T13:56:58;6.20;99.90
23609;DHT22;11982;50.810;4.442;2023-12-07T13:59:24;6.10;99.90
23609;DHT22;11982;50.810;4.442;2023-12-07T14:01:49;6.20;99.90
23609;DHT22;11982;50.810;4.442;2023-12-07T14:04:15;6.10;99.90
23609;DHT22;11982;50.810;4.442;2023-12-07T14:06:40;6.20;99.90
23609;DHT22;11982;50.810;4.442;2023-12-07T14:09:07;6.10;99.90
23609;DHT22;11982;50.810;4.442;2023-12-07T14:14:54;6.30;99.90
23609;DHT22;11982;50.810;4.442;2023-12-07T14:17:20;6.30;99.90
23609;DHT22;11982;50.810;4.442;2023-12-07T14:19:48;6.10;99.90
23609;DHT22;11982;50.810;4.442;2023-12-07T14:22:16;6.10;99.90
23609;DHT22;11982;50.810;4.442;2023-12-07T14:24:42;6.00;99.90
23609;DHT22;11982;50.810;4.442;2023-12-07T14:31:10;5.90;99.90
23609;DHT22;11982;50.810;4.442;2023-12-07T14:33:42;5.80;99.90
23609;DHT22;11982;50.810;4.442;2023-12-07T14:36:09;5.80;99.90
23609;DHT22;11982;50.810;4.442;2023-12-07T14:38:35;5.80;99.90
23609;DHT22;11982;50.810;4.442;2023-12-07T14:41:01;5.70;99.90
23609;DHT22;11982;50.810;4.442;2023-12-07T14:43:26;5.60;99.90
23609;DHT22;11982;50.810;4.442;2023-12-07T14:45:52;5.50;99.90
23609;DHT22;11982;50.810;4.442;2023-12-07T14:48:18;5.50;99.90
23609;DHT22;11982;50.810;4.442;2023-12-07T14:50:44;5.50;99.90
23609;DHT22;11982;50.810;4.442;2023-12-07T14:53:09;5.50;99.90
23609;DHT22;11982;50.810;4.442;2023-12-07T14:55:36;5.60;99.90
23609;DHT22;11982;50.810;4.442;2023-12-07T14:58:01;5.60;99.90
23609;DHT22;11982;50.810;4.442;2023-12-07T15:00:27;5.50;99.90
23609;DHT22;11982;50.810;4.442;2023-12-07T15:02:54;5.60;99.90
23609;DHT22;11982;50.810;4.442;2023-12-07T15:05:20;5.50;99.90
23609;DHT22;11982;50.810;4.442;2023-12-07T15:07:45;5.50;99.90
23609;DHT22;11982;50.810;4.442;2023-12-07T15:10:11;5.40;99.90
23609;DHT22;11982;50.810;4.442;2023-12-07T15:15:59;5.30;99.90
23609;DHT22;11982;50.810;4.442;2023-12-07T15:18:24;5.30;99.90
23609;DHT22;11982;50.810;4.442;2023-12-07T15:20:54;5.40;99.90
23609;DHT22;11982;50.810;4.442;2023-12-07T15:23:20;5.30;99.90
23609;DHT22;11982;50.810;4.442;2023-12-07T15:25:45;5.30;99.90
23609;DHT22;11982;50.810;4.442;2023-12-07T15:28:11;5.40;99.90
23609;DHT22;11982;50.810;4.442;2023-12-07T15:30:40;5.40;99.90
23609;DHT22;11982;50.810;4.442;2023-12-07T15:33:05;5.40;99.90
23609;DHT22;11982;50.810;4.442;2023-12-07T15:35:32;5.30;99.90
23609;DHT22;11982;50.810;4.442;2023-12-07T15:37:58;5.30;99.90
23609;DHT22;11982;50.810;4.442;2023-12-07T15:40:24;5.30;99.90
23609;DHT22;11982;50.810;4.442;2023-12-07T15:46:11;5.20;99.90
23609;DHT22;11982;50.810;4.442;2023-12-07T15:48:37;5.20;99.90
23609;DHT22;11982;50.810;4.442;2023-12-07T15:51:03;5.10;99.90
23609;DHT22;11982;50.810;4.442;2023-12-07T15:53:28;5.10;99.90
23609;DHT22;11982;50.810;4.442;2023-12-07T15:55:54;5.00;99.90
23609;DHT22;11982;50.810;4.442;2023-12-07T16:01:42;5.00;99.90
23609;DHT22;11982;50.810;4.442;2023-12-07T16:04:08;4.90;99.90
23609;DHT22;11982;50.810;4.442;2023-12-07T16:06:33;4.80;99.90
23609;DHT22;11982;50.810;4.442;2023-12-07T16:08:59;4.80;99.90
23609;DHT22;11982;50.810;4.442;2023-12-07T16:11:25;4.80;99.90
23609;DHT22;11982;50.810;4.442;2023-12-07T16:13:50;4.70;99.90
23609;DHT22;11982;50.810;4.442;2023-12-07T16:16:16;4.60;99.90
23609;DHT22;11982;50.810;4.442;2023-12-07T16:18:42;4.60;99.90
23609;DHT22;11982;50.810;4.442;2023-12-07T16:21:07;4.60;99.90
23609;DHT22;11982;50.810;4.442;2023-12-07T16:23:33;4.60;99.90
23609;DHT22;11982;50.810;4.442;2023-12-07T16:25:59;4.70;99.90
23609;DHT22;11982;50.810;4.442;2023-12-07T16:31:46;4.60;99.90
23609;DHT22;11982;50.810;4.442;2023-12-07T16:34:12;4.70;99.90
23609;DHT22;11982;50.810;4.442;2023-12-07T16:36:37;4.80;99.90
23609;DHT22;11982;50.810;4.442;2023-12-07T16:39:03;4.80;99.90
23609;DHT22;11982;50.810;4.442;2023-12-07T16:41:31;4.90;99.90
23609;DHT22;11982;50.810;4.442;2023-12-07T16:47:19;4.90;99.90
23609;DHT22;11982;50.810;4.442;2023-12-07T16:49:45;4.80;99.90
23609;DHT22;11982;50.810;4.442;2023-12-07T16:52:11;4.80;99.90
23609;DHT22;11982;50.810;4.442;2023-12-07T16:54:36;4.80;99.90
23609;DHT22;11982;50.810;4.442;2023-12-07T16:57:02;4.90;99.90
23609;DHT22;11982;50.810;4.442;2023-12-07T16:59:28;4.90;99.90
23609;DHT22;11982;50.810;4.442;2023-12-07T17:01:53;4.90;99.90
23609;DHT22;11982;50.810;4.442;2023-12-07T17:04:19;4.90;99.90
23609;DHT22;11982;50.810;4.442;2023-12-07T17:06:45;4.90;99.90
23609;DHT22;11982;50.810;4.442;2023-12-07T17:09:11;4.90;99.90
23609;DHT22;11982;50.810;4.442;2023-12-07T17:11:38;4.90;99.90
23609;DHT22;11982;50.810;4.442;2023-12-07T17:17:26;4.90;99.90
23609;DHT22;11982;50.810;4.442;2023-12-07T17:19:51;5.00;99.90
23609;DHT22;11982;50.810;4.442;2023-12-07T17:22:17;4.90;99.90
23609;DHT22;11982;50.810;4.442;2023-12-07T17:24:43;5.00;99.90
23609;DHT22;11982;50.810;4.442;2023-12-07T17:27:08;4.90;99.90
23609;DHT22;11982;50.810;4.442;2023-12-07T17:32:56;5.10;99.90
23609;DHT22;11982;50.810;4.442;2023-12-07T17:35:21;5.00;99.90
23609;DHT22;11982;50.810;4.442;2023-12-07T17:37:47;5.10;99.90
23609;DHT22;11982;50.810;4.442;2023-12-07T17:40:13;5.20;99.90
23609;DHT22;11982;50.810;4.442;2023-12-07T17:42:39;5.10;99.90
23609;DHT22;11982;50.810;4.442;2023-12-07T17:45:05;5.20;99.90
23609;DHT22;11982;50.810;4.442;2023-12-07T17:47:32;5.10;99.90
23609;DHT22;11982;50.810;4.442;2023-12-07T17:49:57;5.10;99.90
23609;DHT22;11982;50.810;4.442;2023-12-07T17:52:23;5.10;99.90
23609;DHT22;11982;50.810;4.442;2023-12-07T17:54:49;5.10;99.90
23609;DHT22;11982;50.810;4.442;2023-12-07T17:57:15;5.20;99.90
23609;DHT22;11982;50.810;4.442;2023-12-07T18:03:03;5.20;99.90